Terminal Aerodrome Forecast
Issued by NWS

Home | Current Version | Previous Version | Text Only | Print | Product List | Glossary On
Versions: 1 2 3 4 5 6 7 8 9 10 11 12 13 14 15 16 17 18 19 20 21 22 23 24 25 26 27
416
FTUS41 KBUF 300520
TAFJHW
TAF
KJHW 300520Z 3006/3106 06006KT P6SM SCT090 BKN250
     FM300900 11005KT P6SM OVC080
     FM301200 12005KT P6SM VCSH OVC070
     FM301600 08008KT P6SM VCSH OVC050
     FM302000 03008KT P6SM VCSH OVC040
     FM302300 07007KT P6SM VCSH OVC040
      AMD LTD TO CLD VIS AND WIND=

USA.gov is the U.S. government's official web portal to all federal, state and local government web resources and services.